sensor_id;sensor_type;location;lat;lon;timestamp;pressure;altitude;pressure_sealevel;temperature
9985;BMP180;16737;50.932;6.780;2023-12-20T00:01:57;100127.00;;;12.10
9985;BMP180;16737;50.932;6.780;2023-12-20T00:04:24;100147.00;;;12.10
9985;BMP180;16737;50.932;6.780;2023-12-20T00:06:51;100140.00;;;12.10
9985;BMP180;16737;50.932;6.780;2023-12-20T00:09:18;100140.00;;;12.20
9985;BMP180;16737;50.932;6.780;2023-12-20T00:11:47;100134.00;;;12.10
9985;BMP180;16737;50.932;6.780;2023-12-20T00:14:14;100142.00;;;12.20
9985;BMP180;16737;50.932;6.780;2023-12-20T00:16:40;100141.00;;;12.20
9985;BMP180;16737;50.932;6.780;2023-12-20T00:19:07;100150.00;;;12.20
9985;BMP180;16737;50.932;6.780;2023-12-20T00:21:34;100154.00;;;12.10
9985;BMP180;16737;50.932;6.780;2023-12-20T00:24:02;100155.00;;;12.20
9985;BMP180;16737;50.932;6.780;2023-12-20T00:26:29;100155.00;;;12.20
9985;BMP180;16737;50.932;6.780;2023-12-20T00:28:57;100153.00;;;12.10
9985;BMP180;16737;50.932;6.780;2023-12-20T00:31:24;100154.00;;;12.10
9985;BMP180;16737;50.932;6.780;2023-12-20T00:33:51;100153.00;;;12.10
9985;BMP180;16737;50.932;6.780;2023-12-20T00:36:18;100147.00;;;12.10
9985;BMP180;16737;50.932;6.780;2023-12-20T00:38:45;100155.00;;;12.10
9985;BMP180;16737;50.932;6.780;2023-12-20T00:41:12;100141.00;;;12.10
9985;BMP180;16737;50.932;6.780;2023-12-20T00:43:39;100157.00;;;12.10
9985;BMP180;16737;50.932;6.780;2023-12-20T00:46:07;100162.00;;;12.10
9985;BMP180;16737;50.932;6.780;2023-12-20T00:48:35;100175.00;;;12.10
9985;BMP180;16737;50.932;6.780;2023-12-20T00:51:03;100174.00;;;12.10
9985;BMP180;16737;50.932;6.780;2023-12-20T00:53:30;100168.00;;;12.10
9985;BMP180;16737;50.932;6.780;2023-12-20T00:55:56;100173.00;;;12.10
9985;BMP180;16737;50.932;6.780;2023-12-20T00:58:24;100177.00;;;12.10
9985;BMP180;16737;50.932;6.780;2023-12-20T01:00:52;100168.00;;;12.10
9985;BMP180;16737;50.932;6.780;2023-12-20T01:03:20;100169.00;;;12.10
9985;BMP180;16737;50.932;6.780;2023-12-20T01:05:47;100161.00;;;12.10
9985;BMP180;16737;50.932;6.780;2023-12-20T01:08:14;100168.00;;;12.00
9985;BMP180;16737;50.932;6.780;2023-12-20T01:10:41;100176.00;;;12.00
9985;BMP180;16737;50.932;6.780;2023-12-20T01:13:08;100175.00;;;12.00
9985;BMP180;16737;50.932;6.780;2023-12-20T01:15:35;100182.00;;;12.00
9985;BMP180;16737;50.932;6.780;2023-12-20T01:18:03;100182.00;;;11.90
9985;BMP180;16737;50.932;6.780;2023-12-20T01:20:31;100180.00;;;11.90
9985;BMP180;16737;50.932;6.780;2023-12-20T01:22:58;100198.00;;;11.90
9985;BMP180;16737;50.932;6.780;2023-12-20T01:25:25;100190.00;;;11.90
9985;BMP180;16737;50.932;6.780;2023-12-20T01:27:52;100189.00;;;11.90
9985;BMP180;16737;50.932;6.780;2023-12-20T01:30:19;100192.00;;;11.90
9985;BMP180;16737;50.932;6.780;2023-12-20T01:32:46;100185.00;;;11.80
9985;BMP180;16737;50.932;6.780;2023-12-20T01:35:13;100187.00;;;11.80
9985;BMP180;16737;50.932;6.780;2023-12-20T01:37:42;100192.00;;;11.80
9985;BMP180;16737;50.932;6.780;2023-12-20T01:40:10;100175.00;;;11.80
9985;BMP180;16737;50.932;6.780;2023-12-20T01:42:37;100184.00;;;11.70
9985;BMP180;16737;50.932;6.780;2023-12-20T01:45:05;100193.00;;;11.70
9985;BMP180;16737;50.932;6.780;2023-12-20T01:47:32;100187.00;;;11.60
9985;BMP180;16737;50.932;6.780;2023-12-20T01:50:00;100220.00;;;11.50
9985;BMP180;16737;50.932;6.780;2023-12-20T01:52:29;100213.00;;;11.40
9985;BMP180;16737;50.932;6.780;2023-12-20T01:54:57;100214.00;;;11.40
9985;BMP180;16737;50.932;6.780;2023-12-20T01:57:28;100225.00;;;11.30
9985;BMP180;16737;50.932;6.780;2023-12-20T01:59:56;100220.00;;;11.20
9985;BMP180;16737;50.932;6.780;2023-12-20T02:02:23;100223.00;;;11.20
9985;BMP180;16737;50.932;6.780;2023-12-20T02:04:51;100235.00;;;11.10
9985;BMP180;16737;50.932;6.780;2023-12-20T02:07:19;100237.00;;;11.10
9985;BMP180;16737;50.932;6.780;2023-12-20T02:09:47;100234.00;;;11.00
9985;BMP180;16737;50.932;6.780;2023-12-20T02:12:15;100219.00;;;11.00
9985;BMP180;16737;50.932;6.780;2023-12-20T02:14:43;100226.00;;;11.00
9985;BMP180;16737;50.932;6.780;2023-12-20T02:17:09;100233.00;;;10.90
9985;BMP180;16737;50.932;6.780;2023-12-20T02:19:36;100231.00;;;10.90
9985;BMP180;16737;50.932;6.780;2023-12-20T02:22:09;100241.00;;;10.90
9985;BMP180;16737;50.932;6.780;2023-12-20T02:24:37;100237.00;;;10.80
9985;BMP180;16737;50.932;6.780;2023-12-20T02:27:06;100234.00;;;10.80
9985;BMP180;16737;50.932;6.780;2023-12-20T02:29:34;100244.00;;;10.70
9985;BMP180;16737;50.932;6.780;2023-12-20T02:32:01;100228.00;;;10.70
9985;BMP180;16737;50.932;6.780;2023-12-20T02:34:28;100246.00;;;10.70
9985;BMP180;16737;50.932;6.780;2023-12-20T02:36:55;100240.00;;;10.70
9985;BMP180;16737;50.932;6.780;2023-12-20T02:39:24;100247.00;;;10.60
9985;BMP180;16737;50.932;6.780;2023-12-20T02:41:50;100244.00;;;10.60
9985;BMP180;16737;50.932;6.780;2023-12-20T02:44:17;100241.00;;;10.60
9985;BMP180;16737;50.932;6.780;2023-12-20T02:46:44;100244.00;;;10.50
9985;BMP180;16737;50.932;6.780;2023-12-20T02:49:12;100239.00;;;10.50
9985;BMP180;16737;50.932;6.780;2023-12-20T02:51:38;100248.00;;;10.50
9985;BMP180;16737;50.932;6.780;2023-12-20T02:54:05;100237.00;;;10.50
9985;BMP180;16737;50.932;6.780;2023-12-20T02:56:34;100246.00;;;10.50
9985;BMP180;16737;50.932;6.780;2023-12-20T02:59:01;100245.00;;;10.50
9985;BMP180;16737;50.932;6.780;2023-12-20T03:01:31;100240.00;;;10.50
9985;BMP180;16737;50.932;6.780;2023-12-20T03:03:58;100238.00;;;10.50
9985;BMP180;16737;50.932;6.780;2023-12-20T03:06:25;100243.00;;;10.40
9985;BMP180;16737;50.932;6.780;2023-12-20T03:08:52;100244.00;;;10.50
9985;BMP180;16737;50.932;6.780;2023-12-20T03:11:19;100245.00;;;10.50
9985;BMP180;16737;50.932;6.780;2023-12-20T03:13:47;100234.00;;;10.50
9985;BMP180;16737;50.932;6.780;2023-12-20T03:16:15;100231.00;;;10.50
9985;BMP180;16737;50.932;6.780;2023-12-20T03:18:42;100230.00;;;10.50
9985;BMP180;16737;50.932;6.780;2023-12-20T03:21:09;100228.00;;;10.50
9985;BMP180;16737;50.932;6.780;2023-12-20T03:23:36;100228.00;;;10.60
9985;BMP180;16737;50.932;6.780;2023-12-20T03:26:06;100231.00;;;10.60
9985;BMP180;16737;50.932;6.780;2023-12-20T03:28:34;100245.00;;;10.60
9985;BMP180;16737;50.932;6.780;2023-12-20T03:31:02;100243.00;;;10.60
9985;BMP180;16737;50.932;6.780;2023-12-20T03:33:30;100239.00;;;10.60
9985;BMP180;16737;50.932;6.780;2023-12-20T03:35:57;100220.00;;;10.60
9985;BMP180;16737;50.932;6.780;2023-12-20T03:38:23;100229.00;;;10.60
9985;BMP180;16737;50.932;6.780;2023-12-20T03:40:50;100224.00;;;10.60
9985;BMP180;16737;50.932;6.780;2023-12-20T03:43:17;100233.00;;;10.60
9985;BMP180;16737;50.932;6.780;2023-12-20T03:45:44;100219.00;;;10.60
9985;BMP180;16737;50.932;6.780;2023-12-20T03:48:12;100227.00;;;10.60
9985;BMP180;16737;50.932;6.780;2023-12-20T03:50:40;100225.00;;;10.60
9985;BMP180;16737;50.932;6.780;2023-12-20T03:53:06;100219.00;;;10.60
9985;BMP180;16737;50.932;6.780;2023-12-20T03:55:34;100225.00;;;10.60
9985;BMP180;16737;50.932;6.780;2023-12-20T03:58:01;100221.00;;;10.70
9985;BMP180;16737;50.932;6.780;2023-12-20T04:00:28;100223.00;;;10.70
9985;BMP180;16737;50.932;6.780;2023-12-20T04:02:54;100225.00;;;10.70
9985;BMP180;16737;50.932;6.780;2023-12-20T04:05:22;100219.00;;;10.70
9985;BMP180;16737;50.932;6.780;2023-12-20T04:07:49;100221.00;;;10.70
9985;BMP180;16737;50.932;6.780;2023-12-20T04:10:16;100215.00;;;10.60
9985;BMP180;16737;50.932;6.780;2023-12-20T04:12:43;100215.00;;;10.70
9985;BMP180;16737;50.932;6.780;2023-12-20T04:15:10;100219.00;;;10.70
9985;BMP180;16737;50.932;6.780;2023-12-20T04:17:37;100224.00;;;10.70
9985;BMP180;16737;50.932;6.780;2023-12-20T04:20:06;100222.00;;;10.70
9985;BMP180;16737;50.932;6.780;2023-12-20T04:22:35;100228.00;;;10.70
9985;BMP180;16737;50.932;6.780;2023-12-20T04:25:02;100229.00;;;10.60
9985;BMP180;16737;50.932;6.780;2023-12-20T04:27:29;100214.00;;;10.70
9985;BMP180;16737;50.932;6.780;2023-12-20T04:29:56;100223.00;;;10.60
9985;BMP180;16737;50.932;6.780;2023-12-20T04:32:23;100225.00;;;10.60
9985;BMP180;16737;50.932;6.780;2023-12-20T04:34:50;100223.00;;;10.60
9985;BMP180;16737;50.932;6.780;2023-12-20T04:37:17;100217.00;;;10.60
9985;BMP180;16737;50.932;6.780;2023-12-20T04:39:45;100226.00;;;10.60
9985;BMP180;16737;50.932;6.780;2023-12-20T04:42:12;100228.00;;;10.60
9985;BMP180;16737;50.932;6.780;2023-12-20T04:44:39;100234.00;;;10.60
9985;BMP180;16737;50.932;6.780;2023-12-20T04:47:06;100239.00;;;10.60
9985;BMP180;16737;50.932;6.780;2023-12-20T04:49:33;100240.00;;;10.50
9985;BMP180;16737;50.932;6.780;2023-12-20T04:51:59;100242.00;;;10.50
9985;BMP180;16737;50.932;6.780;2023-12-20T04:54:26;100220.00;;;10.40
9985;BMP180;16737;50.932;6.780;2023-12-20T04:56:55;100237.00;;;10.40
9985;BMP180;16737;50.932;6.780;2023-12-20T04:59:22;100226.00;;;10.40
9985;BMP180;16737;50.932;6.780;2023-12-20T05:01:48;100234.00;;;10.30
9985;BMP180;16737;50.932;6.780;2023-12-20T05:04:15;100228.00;;;10.40
9985;BMP180;16737;50.932;6.780;2023-12-20T05:06:42;100232.00;;;10.30
9985;BMP180;16737;50.932;6.780;2023-12-20T05:09:09;100223.00;;;10.30
9985;BMP180;16737;50.932;6.780;2023-12-20T05:11:36;100229.00;;;10.30
9985;BMP180;16737;50.932;6.780;2023-12-20T05:14:05;100226.00;;;10.20
9985;BMP180;16737;50.932;6.780;2023-12-20T05:16:33;100230.00;;;10.20
9985;BMP180;16737;50.932;6.780;2023-12-20T05:19:00;100232.00;;;10.20
9985;BMP180;16737;50.932;6.780;2023-12-20T05:21:32;100227.00;;;10.20
9985;BMP180;16737;50.932;6.780;2023-12-20T05:23:59;100226.00;;;10.20
9985;BMP180;16737;50.932;6.780;2023-12-20T05:26:26;100236.00;;;10.20
9985;BMP180;16737;50.932;6.780;2023-12-20T05:28:55;100223.00;;;10.10
9985;BMP180;16737;50.932;6.780;2023-12-20T05:31:23;100226.00;;;10.10
9985;BMP180;16737;50.932;6.780;2023-12-20T05:33:50;100224.00;;;10.10
9985;BMP180;16737;50.932;6.780;2023-12-20T05:36:18;100222.00;;;10.10
9985;BMP180;16737;50.932;6.780;2023-12-20T05:38:45;100221.00;;;10.10
9985;BMP180;16737;50.932;6.780;2023-12-20T05:41:12;100238.00;;;10.10
9985;BMP180;16737;50.932;6.780;2023-12-20T05:43:39;100234.00;;;10.10
9985;BMP180;16737;50.932;6.780;2023-12-20T05:46:06;100233.00;;;10.10
9985;BMP180;16737;50.932;6.780;2023-12-20T05:48:35;100246.00;;;10.10
9985;BMP180;16737;50.932;6.780;2023-12-20T05:51:02;100217.00;;;10.10
9985;BMP180;16737;50.932;6.780;2023-12-20T05:53:29;100235.00;;;10.10
9985;BMP180;16737;50.932;6.780;2023-12-20T05:55:56;100226.00;;;10.10
9985;BMP180;16737;50.932;6.780;2023-12-20T05:58:23;100213.00;;;10.20
9985;BMP180;16737;50.932;6.780;2023-12-20T06:00:50;100229.00;;;10.20
9985;BMP180;16737;50.932;6.780;2023-12-20T06:03:17;100240.00;;;10.20
9985;BMP180;16737;50.932;6.780;2023-12-20T06:05:46;100242.00;;;10.20
9985;BMP180;16737;50.932;6.780;2023-12-20T06:08:13;100255.00;;;10.20
9985;BMP180;16737;50.932;6.780;2023-12-20T06:10:40;100239.00;;;10.20
9985;BMP180;16737;50.932;6.780;2023-12-20T06:13:07;100254.00;;;10.30
9985;BMP180;16737;50.932;6.780;2023-12-20T06:15:34;100231.00;;;10.30
9985;BMP180;16737;50.932;6.780;2023-12-20T06:18:01;100235.00;;;10.30
9985;BMP180;16737;50.932;6.780;2023-12-20T06:20:29;100227.00;;;10.30
9985;BMP180;16737;50.932;6.780;2023-12-20T06:22:57;100230.00;;;10.30
9985;BMP180;16737;50.932;6.780;2023-12-20T06:25:24;100240.00;;;10.30
9985;BMP180;16737;50.932;6.780;2023-12-20T06:27:51;100254.00;;;10.30
9985;BMP180;16737;50.932;6.780;2023-12-20T06:30:18;100252.00;;;10.30
9985;BMP180;16737;50.932;6.780;2023-12-20T06:32:45;100259.00;;;10.30
9985;BMP180;16737;50.932;6.780;2023-12-20T06:35:13;100243.00;;;10.30
9985;BMP180;16737;50.932;6.780;2023-12-20T06:37:40;100245.00;;;10.30
9985;BMP180;16737;50.932;6.780;2023-12-20T06:40:10;100245.00;;;10.30
9985;BMP180;16737;50.932;6.780;2023-12-20T06:42:37;100244.00;;;10.30
9985;BMP180;16737;50.932;6.780;2023-12-20T06:45:05;100234.00;;;10.30
9985;BMP180;16737;50.932;6.780;2023-12-20T06:47:32;100245.00;;;10.30
9985;BMP180;16737;50.932;6.780;2023-12-20T06:49:59;100216.00;;;10.30
9985;BMP180;16737;50.932;6.780;2023-12-20T06:52:26;100226.00;;;10.30
9985;BMP180;16737;50.932;6.780;2023-12-20T06:54:53;100240.00;;;10.40
9985;BMP180;16737;50.932;6.780;2023-12-20T06:57:22;100238.00;;;10.40
9985;BMP180;16737;50.932;6.780;2023-12-20T06:59:49;100243.00;;;10.40
9985;BMP180;16737;50.932;6.780;2023-12-20T07:02:17;100228.00;;;10.40
9985;BMP180;16737;50.932;6.780;2023-12-20T07:04:44;100241.00;;;10.40
9985;BMP180;16737;50.932;6.780;2023-12-20T07:07:10;100246.00;;;10.40
9985;BMP180;16737;50.932;6.780;2023-12-20T07:09:37;100239.00;;;10.40
9985;BMP180;16737;50.932;6.780;2023-12-20T07:12:05;100249.00;;;10.40
9985;BMP180;16737;50.932;6.780;2023-12-20T07:14:33;100246.00;;;10.40
9985;BMP180;16737;50.932;6.780;2023-12-20T07:17:00;100236.00;;;10.40
9985;BMP180;16737;50.932;6.780;2023-12-20T07:19:27;100251.00;;;10.40
9985;BMP180;16737;50.932;6.780;2023-12-20T07:21:54;100243.00;;;10.40
9985;BMP180;16737;50.932;6.780;2023-12-20T07:24:21;100252.00;;;10.40
9985;BMP180;16737;50.932;6.780;2023-12-20T07:26:48;100241.00;;;10.40
9985;BMP180;16737;50.932;6.780;2023-12-20T07:29:15;100247.00;;;10.50
9985;BMP180;16737;50.932;6.780;2023-12-20T07:31:44;100243.00;;;10.40
9985;BMP180;16737;50.932;6.780;2023-12-20T07:34:11;100247.00;;;10.50
9985;BMP180;16737;50.932;6.780;2023-12-20T07:36:37;100247.00;;;10.50
9985;BMP180;16737;50.932;6.780;2023-12-20T07:39:04;100240.00;;;10.50
9985;BMP180;16737;50.932;6.780;2023-12-20T07:41:31;100237.00;;;10.50
9985;BMP180;16737;50.932;6.780;2023-12-20T07:43:58;100241.00;;;10.50
9985;BMP180;16737;50.932;6.780;2023-12-20T07:46:25;100243.00;;;10.50
9985;BMP180;16737;50.932;6.780;2023-12-20T07:48:54;100239.00;;;10.40
9985;BMP180;16737;50.932;6.780;2023-12-20T07:51:21;100250.00;;;10.40
9985;BMP180;16737;50.932;6.780;2023-12-20T07:53:48;100256.00;;;10.50
9985;BMP180;16737;50.932;6.780;2023-12-20T07:56:15;100250.00;;;10.50
9985;BMP180;16737;50.932;6.780;2023-12-20T07:58:43;100256.00;;;10.50
9985;BMP180;16737;50.932;6.780;2023-12-20T08:01:10;100248.00;;;10.50
9985;BMP180;16737;50.932;6.780;2023-12-20T08:03:38;100254.00;;;10.50
9985;BMP180;16737;50.932;6.780;2023-12-20T08:06:06;100248.00;;;10.50
9985;BMP180;16737;50.932;6.780;2023-12-20T08:08:33;100246.00;;;10.50
9985;BMP180;16737;50.932;6.780;2023-12-20T08:11:00;100259.00;;;10.50
9985;BMP180;16737;50.932;6.780;2023-12-20T08:13:28;100255.00;;;10.50
9985;BMP180;16737;50.932;6.780;2023-12-20T08:15:55;100258.00;;;10.50
9985;BMP180;16737;50.932;6.780;2023-12-20T08:18:22;100256.00;;;10.50
9985;BMP180;16737;50.932;6.780;2023-12-20T08:20:49;100249.00;;;10.50
9985;BMP180;16737;50.932;6.780;2023-12-20T08:23:20;100253.00;;;10.50
9985;BMP180;16737;50.932;6.780;2023-12-20T08:25:47;100247.00;;;10.40
9985;BMP180;16737;50.932;6.780;2023-12-20T08:28:14;100250.00;;;10.40
9985;BMP180;16737;50.932;6.780;2023-12-20T08:30:41;100250.00;;;10.40
9985;BMP180;16737;50.932;6.780;2023-12-20T08:33:08;100241.00;;;10.40
9985;BMP180;16737;50.932;6.780;2023-12-20T08:35:38;100234.00;;;10.40
9985;BMP180;16737;50.932;6.780;2023-12-20T08:38:05;100243.00;;;10.40
9985;BMP180;16737;50.932;6.780;2023-12-20T08:40:33;100240.00;;;10.40
9985;BMP180;16737;50.932;6.780;2023-12-20T08:43:01;100251.00;;;10.40
9985;BMP180;16737;50.932;6.780;2023-12-20T08:45:28;100260.00;;;10.40
9985;BMP180;16737;50.932;6.780;2023-12-20T08:47:55;100255.00;;;10.30
9985;BMP180;16737;50.932;6.780;2023-12-20T08:50:22;100259.00;;;10.30
9985;BMP180;16737;50.932;6.780;2023-12-20T08:52:50;100263.00;;;10.30
9985;BMP180;16737;50.932;6.780;2023-12-20T08:55:19;100268.00;;;10.30
9985;BMP180;16737;50.932;6.780;2023-12-20T08:57:47;100271.00;;;10.30
9985;BMP180;16737;50.932;6.780;2023-12-20T09:00:15;100264.00;;;10.30
9985;BMP180;16737;50.932;6.780;2023-12-20T09:02:42;100254.00;;;10.30
9985;BMP180;16737;50.932;6.780;2023-12-20T09:05:09;100270.00;;;10.30
9985;BMP180;16737;50.932;6.780;2023-12-20T09:07:36;100264.00;;;10.40
9985;BMP180;16737;50.932;6.780;2023-12-20T09:10:03;100261.00;;;10.40
9985;BMP180;16737;50.932;6.780;2023-12-20T09:12:31;100271.00;;;10.40
9985;BMP180;16737;50.932;6.780;2023-12-20T09:14:59;100260.00;;;10.50
9985;BMP180;16737;50.932;6.780;2023-12-20T09:17:28;100269.00;;;10.50
9985;BMP180;16737;50.932;6.780;2023-12-20T09:19:55;100257.00;;;10.50
9985;BMP180;16737;50.932;6.780;2023-12-20T09:22:22;100247.00;;;10.50
9985;BMP180;16737;50.932;6.780;2023-12-20T09:24:49;100248.00;;;10.50
9985;BMP180;16737;50.932;6.780;2023-12-20T09:27:16;100246.00;;;10.50
9985;BMP180;16737;50.932;6.780;2023-12-20T09:29:43;100246.00;;;10.50
9985;BMP180;16737;50.932;6.780;2023-12-20T09:32:11;100255.00;;;10.60
9985;BMP180;16737;50.932;6.780;2023-12-20T09:34:38;100250.00;;;10.60
9985;BMP180;16737;50.932;6.780;2023-12-20T09:37:05;100250.00;;;10.60
9985;BMP180;16737;50.932;6.780;2023-12-20T09:39:33;100253.00;;;10.60
9985;BMP180;16737;50.932;6.780;2023-12-20T09:42:02;100254.00;;;10.70
9985;BMP180;16737;50.932;6.780;2023-12-20T09:44:31;100249.00;;;10.70
9985;BMP180;16737;50.932;6.780;2023-12-20T09:46:59;100254.00;;;10.70
9985;BMP180;16737;50.932;6.780;2023-12-20T09:49:30;100263.00;;;10.70
9985;BMP180;16737;50.932;6.780;2023-12-20T09:51:57;100263.00;;;10.80
9985;BMP180;16737;50.932;6.780;2023-12-20T09:54:25;100255.00;;;10.80
9985;BMP180;16737;50.932;6.780;2023-12-20T09:56:52;100259.00;;;10.80
9985;BMP180;16737;50.932;6.780;2023-12-20T09:59:19;100268.00;;;10.80
9985;BMP180;16737;50.932;6.780;2023-12-20T10:01:47;100258.00;;;10.90
9985;BMP180;16737;50.932;6.780;2023-12-20T10:04:16;100263.00;;;10.90
9985;BMP180;16737;50.932;6.780;2023-12-20T10:06:44;100262.00;;;10.90
9985;BMP180;16737;50.932;6.780;2023-12-20T10:09:12;100261.00;;;10.80
9985;BMP180;16737;50.932;6.780;2023-12-20T10:11:40;100267.00;;;10.90
9985;BMP180;16737;50.932;6.780;2023-12-20T10:14:07;100263.00;;;10.90
9985;BMP180;16737;50.932;6.780;2023-12-20T10:16:34;100242.00;;;10.90
9985;BMP180;16737;50.932;6.780;2023-12-20T10:19:01;100251.00;;;10.80
9985;BMP180;16737;50.932;6.780;2023-12-20T10:21:28;100257.00;;;10.90
9985;BMP180;16737;50.932;6.780;2023-12-20T10:23:57;100252.00;;;10.90
9985;BMP180;16737;50.932;6.780;2023-12-20T10:26:26;100248.00;;;10.90
9985;BMP180;16737;50.932;6.780;2023-12-20T10:28:54;100257.00;;;10.90
9985;BMP180;16737;50.932;6.780;2023-12-20T10:31:30;100244.00;;;10.90
9985;BMP180;16737;50.932;6.780;2023-12-20T10:33:58;100254.00;;;10.90
9985;BMP180;16737;50.932;6.780;2023-12-20T10:36:28;100250.00;;;10.90
9985;BMP180;16737;50.932;6.780;2023-12-20T10:38:58;100236.00;;;10.90
9985;BMP180;16737;50.932;6.780;2023-12-20T10:41:28;100226.00;;;10.90
9985;BMP180;16737;50.932;6.780;2023-12-20T10:43:59;100224.00;;;10.90
9985;BMP180;16737;50.932;6.780;2023-12-20T10:46:27;100209.00;;;10.90
9985;BMP180;16737;50.932;6.780;2023-12-20T10:48:56;100215.00;;;10.90
9985;BMP180;16737;50.932;6.780;2023-12-20T10:51:24;100211.00;;;10.90
9985;BMP180;16737;50.932;6.780;2023-12-20T10:53:54;100215.00;;;10.90
9985;BMP180;16737;50.932;6.780;2023-12-20T10:56:23;100212.00;;;10.90
9985;BMP180;16737;50.932;6.780;2023-12-20T10:58:50;100213.00;;;10.90
9985;BMP180;16737;50.932;6.780;2023-12-20T11:01:19;100215.00;;;10.90
9985;BMP180;16737;50.932;6.780;2023-12-20T11:03:50;100210.00;;;10.90
9985;BMP180;16737;50.932;6.780;2023-12-20T11:06:36;100216.00;;;10.90
9985;BMP180;16737;50.932;6.780;2023-12-20T11:09:16;100225.00;;;10.90
9985;BMP180;16737;50.932;6.780;2023-12-20T11:12:01;100230.00;;;10.90
9985;BMP180;16737;50.932;6.780;2023-12-20T11:14:40;100216.00;;;10.90
9985;BMP180;16737;50.932;6.780;2023-12-20T11:17:10;100223.00;;;11.00
9985;BMP180;16737;50.932;6.780;2023-12-20T11:20:08;100224.00;;;10.90
9985;BMP180;16737;50.932;6.780;2023-12-20T11:22:37;100225.00;;;11.00
9985;BMP180;16737;50.932;6.780;2023-12-20T11:25:09;100224.00;;;11.00
9985;BMP180;16737;50.932;6.780;2023-12-20T11:27:42;100225.00;;;11.00
9985;BMP180;16737;50.932;6.780;2023-12-20T11:30:11;100210.00;;;11.00
9985;BMP180;16737;50.932;6.780;2023-12-20T11:32:39;100203.00;;;11.00
9985;BMP180;16737;50.932;6.780;2023-12-20T11:35:20;100191.00;;;11.00
9985;BMP180;16737;50.932;6.780;2023-12-20T11:37:49;100203.00;;;11.00
9985;BMP180;16737;50.932;6.780;2023-12-20T11:40:18;100217.00;;;11.00
9985;BMP180;16737;50.932;6.780;2023-12-20T11:42:51;100195.00;;;11.00
9985;BMP180;16737;50.932;6.780;2023-12-20T11:45:20;100203.00;;;11.00
9985;BMP180;16737;50.932;6.780;2023-12-20T11:47:50;100188.00;;;11.10
9985;BMP180;16737;50.932;6.780;2023-12-20T11:50:17;100196.00;;;11.10
9985;BMP180;16737;50.932;6.780;2023-12-20T11:52:44;100193.00;;;11.10
9985;BMP180;16737;50.932;6.780;2023-12-20T11:55:11;100195.00;;;11.10
9985;BMP180;16737;50.932;6.780;2023-12-20T11:57:38;100196.00;;;11.10
9985;BMP180;16737;50.932;6.780;2023-12-20T12:00:07;100190.00;;;11.10
9985;BMP180;16737;50.932;6.780;2023-12-20T12:02:34;100196.00;;;11.10
9985;BMP180;16737;50.932;6.780;2023-12-20T12:05:01;100189.00;;;11.10
9985;BMP180;16737;50.932;6.780;2023-12-20T12:07:30;100196.00;;;11.10
9985;BMP180;16737;50.932;6.780;2023-12-20T12:09:57;100176.00;;;11.10
9985;BMP180;16737;50.932;6.780;2023-12-20T12:12:25;100182.00;;;11.20
9985;BMP180;16737;50.932;6.780;2023-12-20T12:14:53;100182.00;;;11.10
9985;BMP180;16737;50.932;6.780;2023-12-20T12:17:23;100173.00;;;11.20
9985;BMP180;16737;50.932;6.780;2023-12-20T12:20:02;100165.00;;;11.20
9985;BMP180;16737;50.932;6.780;2023-12-20T12:22:29;100169.00;;;11.20
9985;BMP180;16737;50.932;6.780;2023-12-20T12:25:08;100138.00;;;11.20
9985;BMP180;16737;50.932;6.780;2023-12-20T12:27:36;100136.00;;;11.20
9985;BMP180;16737;50.932;6.780;2023-12-20T12:30:06;100164.00;;;11.20
9985;BMP180;16737;50.932;6.780;2023-12-20T12:32:35;100154.00;;;11.20
9985;BMP180;16737;50.932;6.780;2023-12-20T12:35:03;100159.00;;;11.20
9985;BMP180;16737;50.932;6.780;2023-12-20T12:37:34;100161.00;;;11.20
9985;BMP180;16737;50.932;6.780;2023-12-20T12:40:01;100155.00;;;11.20
9985;BMP180;16737;50.932;6.780;2023-12-20T12:42:30;100151.00;;;11.20
9985;BMP180;16737;50.932;6.780;2023-12-20T12:44:57;100154.00;;;11.30
9985;BMP180;16737;50.932;6.780;2023-12-20T12:47:25;100153.00;;;11.30
9985;BMP180;16737;50.932;6.780;2023-12-20T12:49:53;100146.00;;;11.30
9985;BMP180;16737;50.932;6.780;2023-12-20T12:52:20;100147.00;;;11.30
9985;BMP180;16737;50.932;6.780;2023-12-20T12:54:47;100148.00;;;11.30
9985;BMP180;16737;50.932;6.780;2023-12-20T12:57:14;100148.00;;;11.30
9985;BMP180;16737;50.932;6.780;2023-12-20T12:59:41;100146.00;;;11.30
9985;BMP180;16737;50.932;6.780;2023-12-20T13:02:09;100151.00;;;11.30
9985;BMP180;16737;50.932;6.780;2023-12-20T13:04:36;100143.00;;;11.30
9985;BMP180;16737;50.932;6.780;2023-12-20T13:07:05;100125.00;;;11.30
9985;BMP180;16737;50.932;6.780;2023-12-20T13:09:32;100126.00;;;11.30
9985;BMP180;16737;50.932;6.780;2023-12-20T13:12:00;100126.00;;;11.30
9985;BMP180;16737;50.932;6.780;2023-12-20T13:14:33;100130.00;;;11.30
9985;BMP180;16737;50.932;6.780;2023-12-20T13:17:06;100120.00;;;11.30
9985;BMP180;16737;50.932;6.780;2023-12-20T13:19:33;100119.00;;;11.30
9985;BMP180;16737;50.932;6.780;2023-12-20T13:22:00;100116.00;;;11.30
9985;BMP180;16737;50.932;6.780;2023-12-20T13:24:29;100110.00;;;11.30
9985;BMP180;16737;50.932;6.780;2023-12-20T13:26:56;100105.00;;;11.30
9985;BMP180;16737;50.932;6.780;2023-12-20T13:29:23;100104.00;;;11.30
9985;BMP180;16737;50.932;6.780;2023-12-20T13:31:53;100092.00;;;11.30
9985;BMP180;16737;50.932;6.780;2023-12-20T13:34:19;100086.00;;;11.30
9985;BMP180;16737;50.932;6.780;2023-12-20T13:36:47;100094.00;;;11.30
9985;BMP180;16737;50.932;6.780;2023-12-20T13:39:16;100094.00;;;11.30
9985;BMP180;16737;50.932;6.780;2023-12-20T13:41:45;100079.00;;;11.30
9985;BMP180;16737;50.932;6.780;2023-12-20T13:44:12;100077.00;;;11.30
9985;BMP180;16737;50.932;6.780;2023-12-20T13:46:41;100074.00;;;11.30
9985;BMP180;16737;50.932;6.780;2023-12-20T13:49:08;100062.00;;;11.30
9985;BMP180;16737;50.932;6.780;2023-12-20T13:51:37;100064.00;;;11.30
9985;BMP180;16737;50.932;6.780;2023-12-20T13:54:05;100055.00;;;11.30
9985;BMP180;16737;50.932;6.780;2023-12-20T13:56:35;100052.00;;;11.30
9985;BMP180;16737;50.932;6.780;2023-12-20T13:59:05;100059.00;;;11.30
9985;BMP180;16737;50.932;6.780;2023-12-20T14:01:42;100059.00;;;11.30
9985;BMP180;16737;50.932;6.780;2023-12-20T14:04:11;100055.00;;;11.30
9985;BMP180;16737;50.932;6.780;2023-12-20T14:06:40;100045.00;;;11.40
9985;BMP180;16737;50.932;6.780;2023-12-20T14:09:08;100042.00;;;11.40
9985;BMP180;16737;50.932;6.780;2023-12-20T14:11:40;100056.00;;;11.40
9985;BMP180;16737;50.932;6.780;2023-12-20T14:14:19;100055.00;;;11.40